Time;durP1;ratioP1;P1;durP2;ratioP2;P2;SDS_P1;SDS_P2;PMS_P1;PMS_P2;Temp;Humidity;BMP_temperature;BMP_pressure;BME280_temperature;BME280_humidity;BME280_pressure;Samples;Min_cycle;Max_cycle;Signal;HPM_P1;HPM_P2
2022/07/18 00:01:56;;;;;;;7.97;4.78;;;16.10;99.90;;;;;;5045225;28;20408;-68
2022/07/18 00:04:22;;;;;;;7.45;4.45;;;16.10;99.90;;;;;;5042275;28;20286;-70
2022/07/18 00:06:48;;;;;;;8.90;4.25;;;16.00;99.90;;;;;;5012973;28;20186;-69
2022/07/18 00:09:14;;;;;;;6.10;4.43;;;16.00;99.90;;;;;;5041656;28;20076;-70
2022/07/18 00:11:40;;;;;;;6.05;4.75;;;16.00;99.90;;;;;;5036103;28;20041;-70
2022/07/18 00:14:06;;;;;;;8.07;4.65;;;15.90;99.90;;;;;;5018430;28;20045;-70
2022/07/18 00:16:31;;;;;;;6.72;4.95;;;15.90;99.90;;;;;;5026496;28;20115;-70
2022/07/18 00:18:58;;;;;;;9.68;4.63;;;15.90;99.90;;;;;;5041726;28;20137;-71
2022/07/18 00:21:24;;;;;;;6.93;4.55;;;15.80;99.90;;;;;;5025080;28;20037;-69
2022/07/18 00:23:50;;;;;;;6.38;4.72;;;15.80;99.90;;;;;;5047024;28;20044;-70
2022/07/18 00:26:16;;;;;;;6.68;4.78;;;15.90;99.90;;;;;;5029403;28;20562;-70
2022/07/18 00:28:42;;;;;;;6.32;4.80;;;15.90;99.90;;;;;;5026528;28;20041;-72
2022/07/18 00:31:08;;;;;;;5.10;4.32;;;15.90;99.90;;;;;;5004112;28;20516;-70
2022/07/18 00:33:33;;;;;;;7.00;4.55;;;15.80;99.90;;;;;;5038670;28;20094;-71
2022/07/18 00:35:59;;;;;;;7.35;4.97;;;15.80;99.90;;;;;;5023167;28;20056;-69
2022/07/18 00:38:25;;;;;;;8.15;4.80;;;15.70;99.90;;;;;;5035953;28;20082;-72
2022/07/18 00:40:51;;;;;;;7.93;4.80;;;15.70;99.90;;;;;;5019911;28;20049;-71
2022/07/18 00:43:16;;;;;;;6.63;4.80;;;15.60;99.90;;;;;;5034852;28;20041;-70
2022/07/18 00:45:46;;;;;;;9.32;4.80;;;15.70;99.90;;;;;;5045337;28;20699;-72
2022/07/18 00:48:12;;;;;;;6.80;4.60;;;15.70;99.90;;;;;;5038940;28;20079;-71
2022/07/18 00:50:39;;;;;;;4.95;4.45;;;15.60;99.90;;;;;;5023270;28;20044;-70
2022/07/18 00:53:05;;;;;;;7.68;4.90;;;15.70;99.90;;;;;;5037651;28;20054;-71
2022/07/18 00:55:31;;;;;;;7.82;4.90;;;15.70;99.90;;;;;;5019141;28;20036;-71
2022/07/18 00:57:58;;;;;;;5.70;5.10;;;15.70;99.90;;;;;;5019480;28;20048;-69
2022/07/18 01:03:08;;;;;;;9.50;5.13;;;15.70;99.90;;;;;;5039439;28;20044;-71
2022/07/18 01:05:34;;;;;;;8.25;5.45;;;15.60;99.90;;;;;;5031549;28;20569;-69
2022/07/18 01:07:59;;;;;;;8.32;5.45;;;15.60;99.90;;;;;;5036276;28;20048;-69
2022/07/18 01:10:25;;;;;;;8.95;5.45;;;15.60;99.90;;;;;;5040637;28;20303;-70
2022/07/18 01:12:51;;;;;;;7.63;5.93;;;15.50;99.90;;;;;;5035033;28;21198;-70
2022/07/18 01:15:17;;;;;;;9.95;6.43;;;15.50;99.90;;;;;;4999063;28;20076;-72
2022/07/18 01:17:43;;;;;;;7.40;5.53;;;15.50;99.90;;;;;;5038234;28;20053;-70
2022/07/18 01:20:09;;;;;;;10.07;5.88;;;15.50;99.90;;;;;;5014339;28;20147;-70
2022/07/18 01:22:35;;;;;;;8.07;5.95;;;15.50;99.90;;;;;;5038998;28;21194;-70
2022/07/18 01:25:00;;;;;;;7.15;6.20;;;15.50;99.90;;;;;;5026536;28;20045;-70
2022/07/18 01:27:26;;;;;;;10.60;6.18;;;15.50;99.90;;;;;;5023710;28;20049;-69
2022/07/18 01:29:53;;;;;;;9.45;6.18;;;15.50;99.90;;;;;;5025254;28;20047;-70
2022/07/18 01:32:19;;;;;;;8.07;6.63;;;15.50;99.90;;;;;;5029166;28;20205;-70
2022/07/18 01:34:50;;;;;;;9.15;6.40;;;15.50;99.90;;;;;;5040110;28;20713;-72
2022/07/18 01:37:17;;;;;;;9.27;6.50;;;15.50;99.90;;;;;;5038904;28;20040;-71
2022/07/18 01:39:44;;;;;;;10.38;6.50;;;15.50;99.90;;;;;;5035822;28;20645;-70
2022/07/18 01:42:10;;;;;;;8.93;6.07;;;15.50;99.90;;;;;;5038761;28;21042;-69
2022/07/18 01:44:37;;;;;;;9.13;6.22;;;15.40;99.90;;;;;;5036991;28;20041;-69
2022/07/18 01:47:06;;;;;;;9.38;6.55;;;15.40;99.90;;;;;;5047076;28;20040;-70
2022/07/18 01:49:32;;;;;;;8.45;7.05;;;15.30;99.90;;;;;;5017785;28;20060;-70
2022/07/18 01:51:59;;;;;;;9.43;6.78;;;15.40;99.90;;;;;;5030939;28;20620;-71
2022/07/18 01:54:26;;;;;;;10.35;6.97;;;15.30;99.90;;;;;;5035280;28;20536;-70
2022/07/18 01:56:52;;;;;;;9.45;7.05;;;15.40;99.90;;;;;;5030154;28;20438;-70
2022/07/18 01:59:18;;;;;;;10.05;7.05;;;15.50;99.90;;;;;;5034184;28;20051;-73
2022/07/18 02:01:44;;;;;;;9.70;6.90;;;15.60;99.90;;;;;;5042001;28;20675;-72
2022/07/18 02:04:10;;;;;;;11.98;7.20;;;15.60;99.90;;;;;;5031120;28;20048;-71
2022/07/18 02:06:36;;;;;;;8.05;6.68;;;15.70;99.90;;;;;;5017927;28;20110;-70
2022/07/18 02:09:03;;;;;;;8.68;6.70;;;15.70;99.90;;;;;;5040164;28;20037;-69
2022/07/18 02:11:29;;;;;;;9.57;6.93;;;15.70;99.90;;;;;;5036173;28;20049;-70
2022/07/18 02:13:54;;;;;;;9.15;7.10;;;15.70;99.90;;;;;;5037068;28;20579;-69
2022/07/18 02:16:20;;;;;;;8.68;6.80;;;15.80;99.90;;;;;;5022006;28;20048;-72
2022/07/18 02:18:45;;;;;;;9.18;6.32;;;15.80;99.90;;;;;;5042788;28;20773;-70
2022/07/18 02:21:13;;;;;;;8.35;6.38;;;15.80;99.90;;;;;;5038579;28;20048;-71
2022/07/18 02:23:40;;;;;;;8.30;6.47;;;15.90;99.90;;;;;;5032723;28;20056;-69
2022/07/18 02:26:06;;;;;;;11.90;6.43;;;15.90;99.90;;;;;;5020278;28;20036;-70
2022/07/18 02:28:32;;;;;;;9.27;6.40;;;15.90;99.90;;;;;;5041932;28;20055;-70
2022/07/18 02:30:57;;;;;;;9.43;6.07;;;16.00;99.90;;;;;;5035877;28;20037;-70
2022/07/18 02:33:23;;;;;;;8.13;6.03;;;15.90;99.90;;;;;;5034458;28;20131;-69
2022/07/18 02:35:49;;;;;;;10.00;6.57;;;16.00;99.90;;;;;;5019332;28;20048;-72
2022/07/18 02:38:14;;;;;;;8.52;6.28;;;15.90;99.90;;;;;;5016022;28;20118;-70
2022/07/18 02:40:40;;;;;;;8.10;6.40;;;15.90;99.90;;;;;;5036282;28;20621;-70
2022/07/18 02:43:06;;;;;;;7.50;6.70;;;15.90;99.90;;;;;;5039719;28;20110;-69
2022/07/18 02:45:31;;;;;;;11.32;6.82;;;15.90;99.90;;;;;;5021138;28;20072;-70
2022/07/18 02:47:57;;;;;;;10.00;6.65;;;15.90;99.90;;;;;;5015156;28;20079;-70
2022/07/18 02:50:23;;;;;;;10.63;6.75;;;15.90;99.90;;;;;;5032956;28;20044;-70
2022/07/18 02:52:50;;;;;;;11.77;7.03;;;15.90;99.90;;;;;;5039823;28;20129;-70
2022/07/18 02:55:16;;;;;;;9.50;6.85;;;15.90;99.90;;;;;;5039993;28;20109;-69
2022/07/18 02:57:42;;;;;;;9.18;6.85;;;15.90;99.90;;;;;;5017945;28;20048;-68
2022/07/18 03:00:11;;;;;;;7.78;6.80;;;15.90;99.90;;;;;;5040056;28;20140;-70
2022/07/18 03:02:37;;;;;;;9.40;7.20;;;15.90;99.90;;;;;;5039737;28;20113;-72
2022/07/18 03:05:04;;;;;;;7.85;6.50;;;15.90;99.90;;;;;;5023262;28;20110;-69
2022/07/18 03:07:30;;;;;;;10.77;7.20;;;15.90;99.90;;;;;;5034989;28;20563;-69
2022/07/18 03:09:56;;;;;;;10.73;7.63;;;15.90;99.90;;;;;;5035326;28;20685;-69
2022/07/18 03:12:22;;;;;;;9.85;6.97;;;16.00;99.90;;;;;;5033009;28;20044;-68
2022/07/18 03:14:48;;;;;;;9.10;6.85;;;15.90;99.90;;;;;;5034943;28;20106;-72
2022/07/18 03:17:14;;;;;;;8.75;6.35;;;15.90;99.90;;;;;;5017130;28;20056;-70
2022/07/18 03:19:40;;;;;;;8.02;6.35;;;16.00;99.90;;;;;;5035645;28;20037;-70
2022/07/18 03:22:05;;;;;;;10.13;7.28;;;16.00;99.90;;;;;;5030996;28;20116;-69
2022/07/18 03:24:31;;;;;;;9.57;6.78;;;16.10;99.90;;;;;;5032099;28;20430;-70
2022/07/18 03:26:58;;;;;;;9.90;6.65;;;16.10;99.90;;;;;;5042084;28;20044;-70
2022/07/18 03:29:24;;;;;;;9.48;6.93;;;16.10;99.90;;;;;;5039169;28;20040;-70
2022/07/18 03:31:49;;;;;;;11.35;7.00;;;16.00;99.90;;;;;;5038022;28;20044;-68
2022/07/18 03:34:15;;;;;;;9.82;6.43;;;16.10;99.90;;;;;;5036240;28;20033;-73
2022/07/18 03:36:41;;;;;;;8.02;6.15;;;16.10;99.90;;;;;;5021426;28;20148;-70
2022/07/18 03:39:10;;;;;;;9.93;6.53;;;16.10;99.90;;;;;;5034568;28;20044;-69
2022/07/18 03:41:37;;;;;;;8.25;6.15;;;16.20;99.90;;;;;;5040394;28;20037;-69
2022/07/18 03:44:03;;;;;;;9.55;5.72;;;16.20;99.90;;;;;;5034169;28;20033;-71
2022/07/18 03:46:29;;;;;;;8.10;5.20;;;16.30;99.90;;;;;;5037800;28;20072;-72
2022/07/18 03:48:55;;;;;;;8.88;4.95;;;16.40;99.90;;;;;;5034909;28;20135;-70
2022/07/18 03:51:21;;;;;;;9.88;5.53;;;16.40;99.90;;;;;;5022898;28;20750;-71
2022/07/18 03:53:47;;;;;;;10.07;5.60;;;16.40;99.90;;;;;;5024132;28;20467;-71
2022/07/18 03:56:12;;;;;;;11.05;5.75;;;16.50;99.90;;;;;;5041213;28;20551;-71
2022/07/18 03:58:38;;;;;;;11.38;5.78;;;16.40;99.90;;;;;;5035081;28;20604;-69
2022/07/18 04:01:04;;;;;;;9.40;5.35;;;16.40;99.90;;;;;;5013842;28;20057;-69
2022/07/18 04:03:30;;;;;;;13.10;6.43;;;16.30;99.90;;;;;;5044133;28;20048;-68
2022/07/18 04:05:55;;;;;;;12.32;6.18;;;16.30;99.90;;;;;;5034916;28;20057;-70
2022/07/18 04:08:21;;;;;;;10.27;5.50;;;16.30;99.90;;;;;;5030949;28;20045;-71
2022/07/18 04:10:53;;;;;;;9.50;6.07;;;16.30;99.90;;;;;;5036198;28;20179;-69
2022/07/18 04:13:18;;;;;;;9.25;5.30;;;16.30;99.90;;;;;;5033069;28;20044;-72
2022/07/18 04:15:44;;;;;;;7.95;5.70;;;16.30;99.90;;;;;;5022245;28;20091;-69
2022/07/18 04:18:10;;;;;;;9.68;5.65;;;16.30;99.90;;;;;;5038686;28;20053;-70
2022/07/18 04:20:38;;;;;;;12.48;5.97;;;16.30;99.90;;;;;;5033928;28;20041;-68
2022/07/18 04:23:07;;;;;;;8.30;5.00;;;16.40;99.90;;;;;;5024655;28;20077;-70
2022/07/18 04:25:39;;;;;;;8.77;5.22;;;16.40;99.90;;;;;;5039522;28;20136;-71
2022/07/18 04:28:06;;;;;;;9.82;5.38;;;16.50;99.90;;;;;;5039202;28;20641;-70
2022/07/18 04:30:33;;;;;;;6.75;5.13;;;16.50;99.90;;;;;;5021191;28;20045;-69
2022/07/18 04:33:02;;;;;;;9.98;5.43;;;16.50;99.90;;;;;;5017970;28;20040;-70
2022/07/18 04:35:28;;;;;;;9.10;5.75;;;16.60;99.90;;;;;;5032412;28;20559;-70
2022/07/18 04:37:54;;;;;;;9.25;5.30;;;16.60;99.90;;;;;;5039934;28;20480;-70
2022/07/18 04:40:20;;;;;;;8.45;5.40;;;16.70;99.90;;;;;;4999451;28;20052;-70
2022/07/18 04:42:46;;;;;;;8.18;5.70;;;16.70;99.90;;;;;;5035226;28;20045;-73
2022/07/18 04:45:13;;;;;;;11.00;5.68;;;16.70;99.90;;;;;;5032440;28;20045;-69
2022/07/18 04:47:38;;;;;;;11.85;5.53;;;16.80;99.90;;;;;;5040075;28;20417;-70
2022/07/18 04:50:05;;;;;;;7.80;5.00;;;16.80;99.90;;;;;;5034220;28;20033;-70
2022/07/18 04:52:42;;;;;;;7.47;5.38;;;16.80;99.90;;;;;;5014393;28;20112;-71
2022/07/18 04:55:09;;;;;;;9.63;5.38;;;16.90;99.90;;;;;;5044060;28;20624;-70
2022/07/18 04:57:36;;;;;;;8.98;5.03;;;16.90;99.90;;;;;;5040115;28;20051;-70
2022/07/18 05:00:07;;;;;;;7.80;5.00;;;16.90;99.90;;;;;;5038127;28;20268;-69
2022/07/18 05:02:33;;;;;;;9.80;5.78;;;16.90;99.90;;;;;;5015591;28;20041;-70
2022/07/18 05:04:59;;;;;;;10.00;5.40;;;17.00;99.90;;;;;;5025916;28;20082;-71
2022/07/18 05:07:24;;;;;;;8.70;5.45;;;17.00;99.90;;;;;;5020775;28;20632;-70
2022/07/18 05:09:50;;;;;;;8.77;5.10;;;17.00;99.90;;;;;;5019809;28;20664;-69
2022/07/18 05:12:18;;;;;;;10.32;4.80;;;17.00;99.90;;;;;;5032715;28;20049;-70
2022/07/18 05:14:44;;;;;;;6.65;4.60;;;17.10;99.90;;;;;;5033426;28;20032;-69
2022/07/18 05:17:09;;;;;;;8.77;4.88;;;17.10;99.90;;;;;;5030965;28;20180;-71
2022/07/18 05:19:35;;;;;;;6.72;4.95;;;17.20;99.90;;;;;;5018252;28;20045;-69
2022/07/18 05:22:01;;;;;;;8.95;5.05;;;17.20;99.90;;;;;;5032914;28;20771;-69
2022/07/18 05:24:26;;;;;;;7.78;4.43;;;17.30;99.90;;;;;;5032210;28;20040;-70
2022/07/18 05:26:52;;;;;;;8.90;4.63;;;17.30;99.90;;;;;;5032098;28;20040;-69
2022/07/18 05:29:18;;;;;;;8.13;5.07;;;17.40;99.90;;;;;;5035990;28;20116;-70
2022/07/18 05:31:43;;;;;;;7.65;4.38;;;17.40;99.90;;;;;;5038655;28;20750;-70
2022/07/18 05:34:09;;;;;;;10.10;4.60;;;17.40;99.90;;;;;;5022058;28;20041;-69
2022/07/18 05:36:34;;;;;;;8.27;4.90;;;17.50;99.90;;;;;;5038179;28;20132;-70
2022/07/18 05:39:01;;;;;;;6.65;3.83;;;17.60;99.90;;;;;;5042807;28;20616;-69
2022/07/18 05:41:27;;;;;;;6.82;4.30;;;17.60;99.90;;;;;;5015618;28;20491;-70
2022/07/18 05:43:53;;;;;;;7.82;4.60;;;17.60;99.90;;;;;;5017386;28;20029;-69
2022/07/18 05:46:18;;;;;;;7.85;4.68;;;17.70;99.90;;;;;;4999500;28;20056;-69
2022/07/18 05:48:45;;;;;;;6.00;4.07;;;17.70;99.90;;;;;;5020483;28;20514;-69
2022/07/18 05:51:11;;;;;;;7.88;3.97;;;17.80;99.90;;;;;;5029304;28;20049;-70
2022/07/18 05:53:37;;;;;;;8.75;4.07;;;17.90;99.90;;;;;;5016255;28;20045;-71
2022/07/18 05:56:03;;;;;;;9.98;3.88;;;18.00;99.90;;;;;;5021550;28;20626;-69
2022/07/18 05:58:29;;;;;;;8.82;3.90;;;18.00;99.90;;;;;;5030722;28;20033;-71
2022/07/18 06:00:55;;;;;;;6.72;3.88;;;18.00;99.90;;;;;;5024474;28;20364;-70
2022/07/18 06:03:21;;;;;;;5.03;3.60;;;18.10;99.90;;;;;;5038992;28;20045;-70
2022/07/18 06:05:46;;;;;;;8.25;3.97;;;18.20;99.90;;;;;;5014685;28;20129;-71
2022/07/18 06:08:12;;;;;;;7.57;4.05;;;18.30;99.90;;;;;;5013278;28;20034;-70
2022/07/18 06:10:38;;;;;;;6.00;3.42;;;18.40;99.90;;;;;;5023878;28;20596;-69
2022/07/18 06:13:03;;;;;;;7.95;3.80;;;18.50;99.90;;;;;;5014871;28;20110;-70
2022/07/18 06:15:29;;;;;;;6.25;3.40;;;18.50;99.90;;;;;;5015463;28;20970;-72
2022/07/18 06:17:55;;;;;;;6.75;3.38;;;18.60;99.90;;;;;;5016966;28;20436;-71
2022/07/18 06:20:21;;;;;;;6.90;3.85;;;18.80;99.90;;;;;;5017000;28;20076;-70
2022/07/18 06:22:46;;;;;;;6.32;3.42;;;18.90;99.90;;;;;;5012094;28;20040;-69
2022/07/18 06:25:12;;;;;;;5.05;2.95;;;19.00;99.90;;;;;;5014045;28;20052;-68
2022/07/18 06:27:38;;;;;;;6.78;3.20;;;19.00;99.90;;;;;;5021293;28;20167;-69
2022/07/18 06:30:07;;;;;;;5.25;2.70;;;19.00;99.90;;;;;;5017322;28;20044;-71
2022/07/18 06:32:32;;;;;;;8.05;2.95;;;19.30;99.90;;;;;;5021428;28;20049;-70
2022/07/18 06:34:58;;;;;;;5.50;2.95;;;19.60;99.90;;;;;;5019482;28;20045;-69
2022/07/18 06:37:24;;;;;;;6.88;3.08;;;19.90;99.90;;;;;;5022205;28;20040;-68
2022/07/18 06:39:49;;;;;;;9.40;2.90;;;20.40;99.90;;;;;;5018230;28;20136;-69
2022/07/18 06:42:15;;;;;;;6.68;2.90;;;20.70;99.90;;;;;;5013617;28;20578;-69
2022/07/18 06:44:41;;;;;;;7.50;2.90;;;21.00;99.90;;;;;;5022915;28;20029;-69
2022/07/18 06:47:07;;;;;;;8.15;3.67;;;21.20;99.90;;;;;;5012481;28;20085;-69
2022/07/18 06:49:32;;;;;;;5.88;2.78;;;21.20;99.90;;;;;;4994961;28;20065;-70
2022/07/18 06:51:58;;;;;;;5.03;2.50;;;21.40;99.90;;;;;;4994399;28;20225;-68
2022/07/18 06:54:27;;;;;;;6.22;2.70;;;21.30;99.90;;;;;;5012934;28;20038;-69
2022/07/18 06:56:54;;;;;;;7.68;2.97;;;21.10;99.90;;;;;;5019952;28;20729;-69
2022/07/18 06:59:20;;;;;;;5.18;2.67;;;21.20;99.90;;;;;;5021114;28;20120;-72
2022/07/18 07:01:46;;;;;;;5.85;2.75;;;21.30;99.90;;;;;;5014249;28;20069;-69
2022/07/18 07:04:11;;;;;;;6.40;2.75;;;21.50;99.90;;;;;;5024054;28;20136;-72
2022/07/18 07:06:38;;;;;;;6.38;2.70;;;21.80;99.90;;;;;;5042332;28;20690;-71
2022/07/18 07:09:05;;;;;;;5.55;2.65;;;21.90;99.90;;;;;;5021301;28;20053;-70
2022/07/18 07:11:31;;;;;;;4.15;2.40;;;22.30;99.90;;;;;;5040015;28;20339;-68
2022/07/18 07:13:56;;;;;;;5.28;2.20;;;22.20;99.90;;;;;;5055661;28;20052;-70
2022/07/18 07:16:22;;;;;;;5.32;2.63;;;22.20;99.90;;;;;;5061086;28;20482;-71
2022/07/18 07:18:48;;;;;;;5.43;2.33;;;22.10;99.90;;;;;;5064178;28;20044;-68
2022/07/18 07:21:13;;;;;;;5.60;2.25;;;22.00;99.90;;;;;;5044288;28;20040;-70
2022/07/18 07:23:40;;;;;;;5.45;2.20;;;22.10;99.90;;;;;;5043827;28;22102;-69
2022/07/18 07:26:07;;;;;;;4.18;1.80;;;22.20;99.90;;;;;;5060014;28;20048;-69
2022/07/18 07:28:33;;;;;;;6.90;2.00;;;22.50;99.90;;;;;;5037659;28;20046;-72
2022/07/18 07:30:59;;;;;;;5.50;1.83;;;22.80;99.90;;;;;;5039337;28;20043;-70
2022/07/18 07:33:24;;;;;;;5.22;1.75;;;23.10;99.90;;;;;;5054117;28;20032;-69
2022/07/18 07:35:50;;;;;;;4.63;1.40;;;23.40;99.90;;;;;;5054809;28;20032;-68
2022/07/18 07:38:19;;;;;;;3.33;1.40;;;23.50;99.90;;;;;;5054811;28;20044;-69
2022/07/18 07:40:48;;;;;;;7.10;1.42;;;23.60;99.90;;;;;;5054943;28;20044;-69
2022/07/18 07:43:16;;;;;;;7.25;1.27;;;23.90;99.90;;;;;;5057862;28;20576;-70
2022/07/18 07:45:43;;;;;;;5.05;1.30;;;24.00;99.90;;;;;;5059857;28;20155;-69
2022/07/18 07:48:08;;;;;;;4.10;1.17;;;24.40;99.90;;;;;;5058806;28;20044;-71
2022/07/18 07:50:34;;;;;;;3.75;1.00;;;24.80;99.90;;;;;;5041292;28;20618;-70
2022/07/18 07:53:01;;;;;;;3.42;1.00;;;24.60;96.60;;;;;;5056195;28;20653;-70
2022/07/18 07:55:28;;;;;;;2.92;0.68;;;24.80;95.50;;;;;;5055116;28;20036;-71
2022/07/18 07:57:54;;;;;;;4.40;0.88;;;24.70;91.60;;;;;;5053215;28;20040;-71
2022/07/18 08:00:20;;;;;;;3.60;0.60;;;24.80;91.80;;;;;;5058258;28;20247;-70
2022/07/18 08:02:55;;;;;;;4.53;0.60;;;24.70;91.70;;;;;;5038280;28;20040;-70
2022/07/18 08:05:22;;;;;;;1.48;0.40;;;24.60;92.00;;;;;;5062386;28;20520;-69
2022/07/18 08:07:47;;;;;;;3.35;0.70;;;24.90;90.70;;;;;;5047506;28;20135;-70
2022/07/18 08:10:13;;;;;;;1.73;0.52;;;25.20;86.20;;;;;;5035248;28;20055;-71
2022/07/18 08:12:39;;;;;;;1.65;0.50;;;25.30;78.80;;;;;;5058721;28;20177;-72
2022/07/18 08:15:05;;;;;;;3.33;0.75;;;25.40;77.80;;;;;;5038534;28;20041;-71
2022/07/18 08:17:31;;;;;;;2.42;0.52;;;25.30;79.50;;;;;;5065457;28;20058;-70
2022/07/18 08:19:57;;;;;;;3.25;0.60;;;25.30;78.00;;;;;;5058664;28;20053;-73
2022/07/18 08:22:22;;;;;;;3.45;0.70;;;25.20;74.40;;;;;;5059653;28;20032;-72
2022/07/18 08:24:48;;;;;;;4.85;0.95;;;25.10;76.70;;;;;;5053036;28;20080;-71
2022/07/18 08:27:14;;;;;;;2.10;0.60;;;25.50;79.20;;;;;;5041186;28;20037;-71
2022/07/18 08:29:39;;;;;;;2.28;0.70;;;25.80;78.50;;;;;;5033406;28;20551;-71
2022/07/18 08:32:05;;;;;;;3.60;0.50;;;26.20;76.50;;;;;;5036178;28;20049;-72
2022/07/18 08:34:31;;;;;;;6.22;0.50;;;26.50;75.20;;;;;;5016913;28;20547;-68
2022/07/18 08:36:57;;;;;;;2.60;0.47;;;26.50;76.70;;;;;;5041524;28;20135;-68
2022/07/18 08:39:22;;;;;;;1.95;0.50;;;26.70;71.40;;;;;;5015908;28;20326;-70
2022/07/18 08:41:50;;;;;;;2.85;0.65;;;26.60;67.30;;;;;;5040493;28;20728;-69
2022/07/18 08:44:16;;;;;;;2.80;0.40;;;26.60;66.30;;;;;;5027153;28;20068;-73
2022/07/18 08:46:50;;;;;;;1.98;0.50;;;26.50;65.80;;;;;;5036764;28;20676;-70
2022/07/18 08:49:16;;;;;;;2.15;0.40;;;26.30;66.50;;;;;;5039041;28;20128;-70
2022/07/18 08:51:45;;;;;;;5.50;0.50;;;26.30;67.60;;;;;;5014940;28;20045;-71
2022/07/18 08:54:11;;;;;;;1.73;0.40;;;26.40;66.50;;;;;;5042464;28;20049;-70
2022/07/18 08:56:36;;;;;;;2.63;0.47;;;26.30;66.40;;;;;;5039375;28;20119;-72
2022/07/18 08:59:03;;;;;;;1.60;0.32;;;26.30;65.10;;;;;;5041664;28;20041;-73
2022/07/18 09:01:30;;;;;;;3.65;0.47;;;26.30;66.90;;;;;;5033533;28;20118;-73
2022/07/18 09:06:45;;;;;;;2.03;0.50;;;26.10;66.30;;;;;;5018457;28;20068;-69
2022/07/18 09:09:13;;;;;;;3.20;0.60;;;26.10;68.10;;;;;;5042217;28;20097;-69
2022/07/18 09:12:00;;;;;;;2.72;0.45;;;26.10;66.20;;;;;;5035568;28;20488;-72
2022/07/18 09:14:32;;;;;;;2.28;0.40;;;26.00;64.80;;;;;;5018415;28;20649;-70
2022/07/18 09:17:14;;;;;;;2.00;0.50;;;25.90;61.90;;;;;;5037309;28;20044;-69
2022/07/18 09:19:42;;;;;;;1.48;0.40;;;25.90;65.20;;;;;;5037183;28;20037;-70
2022/07/18 09:22:15;;;;;;;2.00;0.43;;;26.10;67.10;;;;;;5017098;28;20041;-69
2022/07/18 09:24:53;;;;;;;2.95;0.52;;;26.30;64.70;;;;;;5039019;28;20041;-69
2022/07/18 09:27:32;;;;;;;2.00;0.40;;;26.30;64.80;;;;;;5018562;28;20552;-69
2022/07/18 09:30:16;;;;;;;4.00;0.57;;;26.40;63.30;;;;;;5033025;28;20045;-70
2022/07/18 09:32:48;;;;;;;2.63;0.50;;;26.40;63.50;;;;;;5031079;28;20045;-69
2022/07/18 09:35:22;;;;;;;2.67;0.40;;;26.40;64.40;;;;;;5039704;28;20048;-70
2022/07/18 09:38:03;;;;;;;2.45;0.50;;;26.70;64.00;;;;;;5015227;28;20048;-69
2022/07/18 09:40:43;;;;;;;1.70;0.40;;;26.90;61.40;;;;;;5047952;28;20053;-70
2022/07/18 09:43:14;;;;;;;2.45;0.50;;;27.00;61.80;;;;;;5030882;28;20060;-68
2022/07/18 09:46:03;;;;;;;2.45;0.40;;;27.20;61.00;;;;;;5049687;28;20043;-69
2022/07/18 09:48:29;;;;;;;1.75;0.43;;;27.10;64.60;;;;;;5016147;28;20052;-69
2022/07/18 09:51:04;;;;;;;2.25;0.50;;;27.20;60.90;;;;;;5030999;28;20589;-70
2022/07/18 09:53:35;;;;;;;3.75;0.40;;;27.40;61.30;;;;;;5030720;28;20044;-71
2022/07/18 09:56:14;;;;;;;2.22;0.50;;;27.80;60.50;;;;;;5032848;28;20029;-70
2022/07/18 09:58:42;;;;;;;5.20;0.57;;;28.00;60.10;;;;;;5030330;28;21113;-70
2022/07/18 10:01:10;;;;;;;1.77;0.40;;;28.20;59.60;;;;;;4982028;28;20060;-70
2022/07/18 10:03:36;;;;;;;3.30;0.60;;;28.40;59.30;;;;;;5031909;28;20041;-68
2022/07/18 10:06:03;;;;;;;2.47;0.50;;;28.30;57.10;;;;;;5031271;28;20543;-72
2022/07/18 10:08:31;;;;;;;3.00;0.47;;;28.40;54.20;;;;;;5032710;28;20830;-70
2022/07/18 10:10:59;;;;;;;4.85;0.60;;;28.20;52.30;;;;;;5033905;28;21068;-71
2022/07/18 10:13:27;;;;;;;3.40;0.47;;;27.90;50.00;;;;;;5029150;28;20052;-72
2022/07/18 10:15:53;;;;;;;2.00;0.50;;;27.80;49.40;;;;;;5029863;28;20918;-73
2022/07/18 10:18:21;;;;;;;3.95;0.60;;;27.80;50.20;;;;;;5032595;28;20106;-69
2022/07/18 10:20:58;;;;;;;3.47;0.43;;;28.10;50.10;;;;;;5027849;28;20041;-71
2022/07/18 10:23:38;;;;;;;5.18;0.43;;;28.30;49.00;;;;;;5029402;28;20269;-73
2022/07/18 10:26:09;;;;;;;2.55;0.40;;;28.70;47.70;;;;;;5014472;28;20118;-73
2022/07/18 10:28:35;;;;;;;4.47;0.50;;;28.70;48.00;;;;;;5036580;28;20517;-70
2022/07/18 10:31:15;;;;;;;4.55;0.60;;;28.80;48.80;;;;;;5031043;28;20123;-70
2022/07/18 10:33:47;;;;;;;2.88;0.50;;;28.80;48.00;;;;;;5014113;28;20041;-69
2022/07/18 10:36:16;;;;;;;5.90;0.77;;;28.60;47.20;;;;;;5028854;28;20059;-69
2022/07/18 10:39:19;;;;;;;4.55;0.50;;;28.60;46.80;;;;;;5029722;28;20186;-70
2022/07/18 10:41:48;;;;;;;4.43;0.68;;;28.40;47.10;;;;;;5031308;28;20118;-70
2022/07/18 10:44:28;;;;;;;3.10;0.50;;;28.30;47.50;;;;;;5044033;28;20464;-69
2022/07/18 10:47:03;;;;;;;2.58;0.60;;;28.60;48.90;;;;;;5022390;28;20099;-72
2022/07/18 10:50:01;;;;;;;4.65;0.65;;;28.80;47.40;;;;;;5029124;28;20456;-71
2022/07/18 10:52:26;;;;;;;4.57;0.63;;;29.30;47.80;;;;;;5024369;28;20399;-71
2022/07/18 10:55:04;;;;;;;1.83;0.55;;;29.60;44.80;;;;;;5027740;28;20045;-70
2022/07/18 10:57:33;;;;;;;3.58;0.70;;;29.50;43.40;;;;;;5038548;28;20376;-70
2022/07/18 11:00:11;;;;;;;2.72;0.70;;;29.60;42.60;;;;;;5029507;28;20080;-69
2022/07/18 11:02:38;;;;;;;3.33;0.60;;;29.50;44.60;;;;;;5010986;28;20488;-70
2022/07/18 11:05:24;;;;;;;3.22;0.70;;;29.60;43.90;;;;;;5043935;28;20041;-73
2022/07/18 11:08:02;;;;;;;3.05;0.70;;;29.60;42.30;;;;;;5039719;28;20060;-70
2022/07/18 11:10:54;;;;;;;3.70;0.80;;;30.10;40.30;;;;;;5006758;28;20506;-70
2022/07/18 11:13:29;;;;;;;4.60;0.90;;;30.10;40.30;;;;;;5041412;28;20044;-71
2022/07/18 11:16:04;;;;;;;3.38;0.77;;;30.00;41.20;;;;;;5038413;28;20131;-70
2022/07/18 11:18:51;;;;;;;2.45;0.70;;;30.00;41.60;;;;;;5029648;28;20044;-70
2022/07/18 11:21:27;;;;;;;3.45;0.63;;;30.60;40.30;;;;;;5022900;28;20060;-70
2022/07/18 11:24:12;;;;;;;2.55;0.55;;;30.80;39.50;;;;;;5032781;28;20114;-70
2022/07/18 11:26:47;;;;;;;1.85;0.55;;;30.80;38.70;;;;;;5025403;28;20052;-72
2022/07/18 11:29:15;;;;;;;2.90;0.60;;;31.00;39.60;;;;;;5046902;28;20603;-71
2022/07/18 11:31:48;;;;;;;2.47;0.90;;;30.80;38.50;;;;;;5041896;28;20114;-70
2022/07/18 11:34:14;;;;;;;2.33;0.90;;;30.80;35.50;;;;;;5032464;28;20609;-72
2022/07/18 11:36:42;;;;;;;9.10;1.20;;;31.00;36.30;;;;;;5043370;28;20053;-70
2022/07/18 11:39:09;;;;;;;7.90;1.25;;;31.20;33.80;;;;;;5032806;28;20611;-72
2022/07/18 11:41:37;;;;;;;4.55;0.95;;;31.00;33.30;;;;;;5033678;28;20041;-70
2022/07/18 11:44:04;;;;;;;2.33;0.80;;;31.20;32.50;;;;;;5033897;28;20423;-70
2022/07/18 11:46:29;;;;;;;2.85;0.88;;;31.40;33.80;;;;;;5047172;28;20080;-70
2022/07/18 11:49:03;;;;;;;4.20;0.90;;;31.40;33.00;;;;;;5040020;28;20175;-71
2022/07/18 11:51:40;;;;;;;2.80;0.93;;;31.40;32.60;;;;;;5051765;28;20633;-72
2022/07/18 11:54:07;;;;;;;2.78;0.95;;;31.30;33.70;;;;;;5043857;28;20538;-73
2022/07/18 11:56:33;;;;;;;3.42;1.08;;;31.00;31.70;;;;;;5053902;28;20036;-71
2022/07/18 11:58:58;;;;;;;1.77;0.90;;;30.90;31.40;;;;;;5052486;28;20377;-71
2022/07/18 12:01:33;;;;;;;2.47;1.20;;;31.10;32.00;;;;;;5051485;28;20111;-71
2022/07/18 12:03:59;;;;;;;3.45;1.00;;;31.00;32.00;;;;;;5033312;28;20040;-70
2022/07/18 12:06:27;;;;;;;2.92;1.30;;;31.00;31.70;;;;;;5033734;28;20049;-70
2022/07/18 12:09:03;;;;;;;3.05;1.27;;;31.00;32.30;;;;;;5035275;28;20045;-71
2022/07/18 12:11:29;;;;;;;1.85;1.30;;;30.70;31.40;;;;;;5035569;28;20531;-72
2022/07/18 12:14:02;;;;;;;2.97;1.20;;;30.60;32.40;;;;;;5042563;28;20044;-71
2022/07/18 12:16:35;;;;;;;4.43;1.25;;;30.50;32.50;;;;;;5032629;28;20651;-70
2022/07/18 12:19:14;;;;;;;2.20;0.88;;;30.40;32.80;;;;;;5032397;28;20496;-70
2022/07/18 12:21:54;;;;;;;2.45;1.10;;;30.50;33.70;;;;;;5043365;28;20104;-70
2022/07/18 12:24:52;;;;;;;4.53;1.20;;;30.80;33.00;;;;;;5045178;28;20048;-70
2022/07/18 12:27:18;;;;;;;4.25;1.02;;;30.90;31.60;;;;;;5031148;28;20614;-73
2022/07/18 12:29:59;;;;;;;2.13;1.10;;;31.20;33.10;;;;;;5031816;28;20048;-70
2022/07/18 12:32:28;;;;;;;4.28;1.35;;;31.30;32.10;;;;;;5034930;28;20050;-71
2022/07/18 12:35:06;;;;;;;3.25;1.40;;;31.40;31.50;;;;;;5046431;28;20048;-72
2022/07/18 12:37:32;;;;;;;3.47;1.17;;;31.70;31.90;;;;;;5016696;28;20084;-71
2022/07/18 12:40:10;;;;;;;2.15;1.20;;;32.10;30.90;;;;;;5045504;28;20124;-70
2022/07/18 12:42:38;;;;;;;2.78;1.58;;;32.50;30.20;;;;;;5023287;28;20608;-70
2022/07/18 12:45:04;;;;;;;3.03;1.48;;;32.50;29.70;;;;;;5049945;28;20052;-69
2022/07/18 12:47:31;;;;;;;4.03;1.45;;;32.60;29.00;;;;;;5050120;28;20136;-70
2022/07/18 12:49:57;;;;;;;3.90;1.50;;;32.60;28.40;;;;;;5032582;28;20418;-71
2022/07/18 12:52:23;;;;;;;2.55;1.65;;;32.10;28.30;;;;;;5036480;28;20284;-70
2022/07/18 12:54:50;;;;;;;3.67;1.50;;;32.10;29.30;;;;;;5031377;28;20120;-70
2022/07/18 12:57:16;;;;;;;4.68;1.60;;;32.00;29.70;;;;;;5050647;28;20036;-73